Time,TemperatureF,DewpointF,PressureIn,WindDirection,WindDirectionDegrees,WindSpeedMPH,WindSpeedGustMPH,Humidity,HourlyPrecipIn,Conditions,Clouds,dailyrainin,SoftwareType,DateUTC
2013-04-17 00:02:00,59.0,38.0,29.82,West,271,0.0,0.0,46,0.00,,,0.00,,2013-04-17 07:02:00,
2013-04-17 00:11:00,59.0,38.0,29.82,West,271,0.0,0.0,46,0.00,,,0.00,,2013-04-17 07:11:00,
2013-04-17 00:21:00,58.0,37.0,29.83,West,271,0.0,1.0,46,0.00,,,0.00,,2013-04-17 07:21:00,
2013-04-17 00:32:00,58.0,38.0,29.83,WNW,283,1.0,3.0,47,0.00,,,0.00,,2013-04-17 07:32:00,
2013-04-17 00:42:00,58.0,38.0,29.83,WNW,283,1.0,3.0,47,0.00,,,0.00,,2013-04-17 07:42:00,
2013-04-17 00:52:00,58.0,38.0,29.83,WSW,254,1.0,7.0,47,0.00,,,0.00,,2013-04-17 07:52:00,
2013-04-17 01:02:00,58.0,38.0,29.83,West,262,1.0,5.0,47,0.00,,,0.00,,2013-04-17 08:02:00,
2013-04-17 01:11:00,58.0,38.0,29.83,West,262,1.0,5.0,47,0.00,,,0.00,,2013-04-17 08:11:00,
2013-04-17 01:21:00,58.0,38.0,29.83,WSW,240,0.0,6.0,47,0.00,,,0.00,,2013-04-17 08:21:00,
2013-04-17 01:32:00,58.0,38.0,29.83,West,264,0.0,3.0,48,0.00,,,0.00,,2013-04-17 08:32:00,
2013-04-17 01:41:00,58.0,38.0,29.83,West,264,0.0,3.0,48,0.00,,,0.00,,2013-04-17 08:41:00,
2013-04-17 01:52:00,58.0,38.0,29.83,West,264,0.0,0.0,48,0.00,,,0.00,,2013-04-17 08:52:00,
2013-04-17 02:02:00,57.0,38.0,29.83,NW,304,0.0,3.0,48,0.00,,,0.00,,2013-04-17 09:02:00,
2013-04-17 02:11:00,57.0,38.0,29.83,NW,304,0.0,3.0,48,0.00,,,0.00,,2013-04-17 09:11:00,
2013-04-17 02:21:00,57.0,38.0,29.83,West,275,1.0,3.0,48,0.00,,,0.00,,2013-04-17 09:21:00,
2013-04-17 02:32:00,57.0,37.0,29.82,West,263,3.0,9.0,47,0.00,,,0.00,,2013-04-17 09:32:00,
2013-04-17 02:42:00,57.0,37.0,29.82,West,263,3.0,9.0,47,0.00,,,0.00,,2013-04-17 09:42:00,
2013-04-17 02:52:00,57.0,36.0,29.82,WSW,248,5.0,14.0,46,0.00,,,0.00,,2013-04-17 09:52:00,
2013-04-17 03:02:00,57.0,36.0,29.83,West,280,7.0,13.0,46,0.00,,,0.00,,2013-04-17 10:02:00,
2013-04-17 03:12:00,57.0,36.0,29.83,West,280,7.0,13.0,46,0.00,,,0.00,,2013-04-17 10:12:00,
2013-04-17 03:22:00,57.0,36.0,29.83,WSW,258,7.0,14.0,45,0.00,,,0.00,,2013-04-17 10:22:00,
2013-04-17 03:32:00,56.0,35.0,29.83,West,272,3.0,12.0,45,0.00,,,0.00,,2013-04-17 10:32:00,
2013-04-17 03:42:00,56.0,35.0,29.83,West,272,3.0,12.0,45,0.00,,,0.00,,2013-04-17 10:42:00,
2013-04-17 03:52:00,56.0,36.0,29.83,WNW,291,3.0,7.0,46,0.00,,,0.00,,2013-04-17 10:52:00,
2013-04-17 04:02:00,55.0,34.0,29.84,West,268,3.0,10.0,45,0.00,,,0.00,,2013-04-17 11:02:00,
2013-04-17 04:11:00,55.0,34.0,29.84,West,268,3.0,10.0,45,0.00,,,0.00,,2013-04-17 11:11:00,
2013-04-17 04:21:00,55.0,34.0,29.85,West,281,2.0,7.0,45,0.00,,,0.00,,2013-04-17 11:21:00,
2013-04-17 04:32:00,55.0,35.0,29.85,West,275,2.0,9.0,46,0.00,,,0.00,,2013-04-17 11:32:00,
2013-04-17 04:42:00,55.0,35.0,29.85,West,275,2.0,9.0,46,0.00,,,0.00,,2013-04-17 11:42:00,
2013-04-17 04:51:00,55.0,35.0,29.84,WNW,287,3.0,8.0,47,0.00,,,0.00,,2013-04-17 11:51:00,
2013-04-17 05:02:00,55.0,35.0,29.85,West,281,3.0,6.0,46,0.00,,,0.00,,2013-04-17 12:02:00,
2013-04-17 05:12:00,55.0,35.0,29.85,West,281,3.0,6.0,46,0.00,,,0.00,,2013-04-17 12:12:00,
2013-04-17 05:22:00,55.0,35.0,29.85,WSW,252,0.0,5.0,46,0.00,,,0.00,,2013-04-17 12:22:00,
2013-04-17 05:32:00,54.0,34.0,29.86,West,281,0.0,0.0,47,0.00,,,0.00,,2013-04-17 12:32:00,
2013-04-17 05:42:00,54.0,34.0,29.86,West,281,0.0,0.0,47,0.00,,,0.00,,2013-04-17 12:42:00,
2013-04-17 05:51:00,54.0,35.0,29.87,North,355,0.0,0.0,48,0.00,,,0.00,,2013-04-17 12:51:00,
2013-04-17 06:02:00,53.0,34.0,29.87,WSW,250,1.0,3.0,48,0.00,,,0.00,,2013-04-17 13:02:00,
2013-04-17 06:11:00,53.0,34.0,29.87,WSW,250,1.0,3.0,48,0.00,,,0.00,,2013-04-17 13:11:00,
2013-04-17 06:22:00,54.0,35.0,29.87,West,280,1.0,6.0,48,0.00,,,0.00,,2013-04-17 13:22:00,
2013-04-17 06:32:00,54.0,35.0,29.88,WNW,290,0.0,5.0,48,0.00,,,0.00,,2013-04-17 13:32:00,
2013-04-17 06:41:00,54.0,35.0,29.88,WNW,290,0.0,5.0,48,0.00,,,0.00,,2013-04-17 13:41:00,
2013-04-17 06:52:00,54.0,35.0,29.88,WNW,290,0.0,0.0,49,0.00,,,0.00,,2013-04-17 13:52:00,
2013-04-17 07:02:00,53.0,34.0,29.90,NNW,333,0.0,3.0,49,0.00,,,0.00,,2013-04-17 14:02:00,
2013-04-17 07:11:00,53.0,34.0,29.90,NNW,333,0.0,3.0,49,0.00,,,0.00,,2013-04-17 14:11:00,
2013-04-17 07:21:00,53.0,34.0,29.90,NNW,333,0.0,3.0,49,0.00,,,0.00,,2013-04-17 14:21:00,
2013-04-17 07:32:00,53.0,34.0,29.90,NNW,333,0.0,3.0,49,0.00,,,0.00,,2013-04-17 14:32:00,
2013-04-17 09:03:00,62.0,36.0,29.95,SW,232,0.0,2.0,38,0.00,,,0.00,,2013-04-17 16:03:00,
2013-04-17 09:12:00,63.0,36.0,29.95,SW,234,1.0,5.0,37,0.00,,,0.00,,2013-04-17 16:12:00,
2013-04-17 09:22:00,63.0,36.0,29.95,SW,234,1.0,5.0,37,0.00,,,0.00,,2013-04-17 16:22:00,
2013-04-17 09:32:00,66.0,35.0,29.95,West,266,2.0,7.0,32,0.00,,,0.00,,2013-04-17 16:32:00,
2013-04-17 09:41:00,66.0,35.0,29.95,West,266,2.0,7.0,32,0.00,,,0.00,,2013-04-17 16:41:00,
2013-04-17 09:52:00,67.0,35.0,29.95,WNW,300,1.0,7.0,31,0.00,,,0.00,,2013-04-17 16:52:00,
2013-04-17 10:02:00,68.0,34.0,29.96,NNW,335,1.0,6.0,28,0.00,,,0.00,,2013-04-17 17:02:00,
2013-04-17 10:11:00,68.0,34.0,29.96,NNW,335,1.0,6.0,28,0.00,,,0.00,,2013-04-17 17:11:00,
2013-04-17 10:22:00,70.0,30.0,29.96,WNW,300,5.0,13.0,23,0.00,,,0.00,,2013-04-17 17:22:00,
2013-04-17 10:32:00,71.0,30.0,29.96,NW,326,5.0,14.0,22,0.00,,,0.00,,2013-04-17 17:32:00,
2013-04-17 10:42:00,71.0,30.0,29.96,NW,326,5.0,14.0,22,0.00,,,0.00,,2013-04-17 17:42:00,
2013-04-17 10:51:00,71.0,31.0,29.96,NW,321,3.0,12.0,23,0.00,,,0.00,,2013-04-17 17:51:00,
2013-04-17 11:02:00,72.0,30.0,29.96,North,355,5.0,14.0,21,0.00,,,0.00,,2013-04-17 18:02:00,
2013-04-17 11:11:00,72.0,30.0,29.96,North,355,5.0,14.0,21,0.00,,,0.00,,2013-04-17 18:11:00,
2013-04-17 11:22:00,72.0,29.0,29.96,NW,306,5.0,14.0,20,0.00,,,0.00,,2013-04-17 18:22:00,
2013-04-17 11:32:00,73.0,30.0,29.96,NW,324,7.0,12.0,20,0.00,,,0.00,,2013-04-17 18:32:00,
2013-04-17 11:42:00,73.0,30.0,29.96,NW,324,7.0,12.0,20,0.00,,,0.00,,2013-04-17 18:42:00,
2013-04-17 11:52:00,74.0,29.0,29.95,NW,304,5.0,13.0,19,0.00,,,0.00,,2013-04-17 18:52:00,
2013-04-17 12:02:00,75.0,29.0,29.94,NNW,337,6.0,15.0,18,0.00,,,0.00,,2013-04-17 19:02:00,
2013-04-17 12:12:00,75.0,29.0,29.94,NNW,337,6.0,15.0,18,0.00,,,0.00,,2013-04-17 19:12:00,
2013-04-17 12:21:00,74.0,29.0,29.94,NW,315,5.0,17.0,19,0.00,,,0.00,,2013-04-17 19:21:00,
2013-04-17 12:32:00,75.0,29.0,29.94,WNW,301,3.0,12.0,18,0.00,,,0.00,,2013-04-17 19:32:00,
2013-04-17 12:41:00,75.0,29.0,29.94,NW,325,5.0,16.0,18,0.00,,,0.00,,2013-04-17 19:41:00,
2013-04-17 12:52:00,75.0,29.0,29.94,NW,325,5.0,16.0,18,0.00,,,0.00,,2013-04-17 19:52:00,
2013-04-17 13:02:00,75.0,27.0,29.93,West,279,4.0,13.0,17,0.00,,,0.00,,2013-04-17 20:02:00,
2013-04-17 13:32:00,76.0,27.0,29.93,NW,307,3.0,10.0,16,0.00,,,0.00,,2013-04-17 20:32:00,
2013-04-17 13:52:00,76.0,28.0,29.93,NNW,338,5.0,15.0,17,0.00,,,0.00,,2013-04-17 20:52:00,
2013-04-17 14:02:00,76.0,25.0,29.93,NW,322,3.0,13.0,15,0.00,,,0.00,,2013-04-17 21:02:00,
2013-04-17 14:22:00,76.0,25.0,29.93,WNW,288,2.0,13.0,15,0.00,,,0.00,,2013-04-17 21:22:00,
2013-04-17 14:32:00,77.0,26.0,29.92,NNW,330,5.0,15.0,15,0.00,,,0.00,,2013-04-17 21:32:00,
2013-04-17 14:42:00,77.0,26.0,29.93,NNW,331,9.0,21.0,15,0.00,,,0.00,,2013-04-17 21:42:00,
2013-04-17 15:02:00,77.0,26.0,29.92,WNW,287,3.0,9.0,15,0.00,,,0.00,,2013-04-17 22:02:00,
2013-04-17 15:33:00,77.0,26.0,29.91,NW,313,3.0,10.0,15,0.00,,,0.00,,2013-04-17 22:33:00,
2013-04-17 15:42:00,77.0,24.0,29.91,WNW,294,4.0,14.0,14,0.00,,,0.00,,2013-04-17 22:42:00,
2013-04-17 16:02:00,77.0,24.0,29.91,West,278,2.0,12.0,14,0.00,,,0.00,,2013-04-17 23:02:00,
2013-04-17 16:12:00,77.0,20.0,29.91,WSW,257,2.0,12.0,12,0.00,,,0.00,,2013-04-17 23:12:00,
2013-04-17 16:32:00,78.0,23.0,29.91,WNW,300,3.0,9.0,13,0.00,,,0.00,,2013-04-17 23:32:00,
2013-04-17 16:42:00,78.0,21.0,29.91,WNW,295,2.0,9.0,12,0.00,,,0.00,,2013-04-17 23:42:00,
2013-04-17 17:02:00,77.0,24.0,29.91,NW,304,2.0,9.0,14,0.00,,,0.00,,2013-04-18 00:02:00,
2013-04-17 17:12:00,77.0,26.0,29.91,NW,311,2.0,15.0,15,0.00,,,0.00,,2013-04-18 00:12:00,
2013-04-17 17:32:00,77.0,22.0,29.91,NW,322,1.0,5.0,13,0.00,,,0.00,,2013-04-18 00:32:00,
2013-04-17 17:42:00,76.0,25.0,29.92,NW,322,3.0,12.0,15,0.00,,,0.00,,2013-04-18 00:42:00,
2013-04-17 18:02:00,76.0,27.0,29.91,NNW,333,2.0,6.0,16,0.00,,,0.00,,2013-04-18 01:02:00,
2013-04-17 18:11:00,75.0,27.0,29.91,North,355,2.0,10.0,17,0.00,,,0.00,,2013-04-18 01:11:00,
2013-04-17 18:32:00,74.0,28.0,29.91,NW,326,0.0,7.0,18,0.00,,,0.00,,2013-04-18 01:32:00,
2013-04-17 18:41:00,74.0,29.0,29.92,WNW,300,1.0,3.0,19,0.00,,,0.00,,2013-04-18 01:41:00,
2013-04-17 19:02:00,73.0,27.0,29.92,NW,317,0.0,3.0,18,0.00,,,0.00,,2013-04-18 02:02:00,
2013-04-17 19:11:00,72.0,27.0,29.93,WNW,302,0.0,3.0,19,0.00,,,0.00,,2013-04-18 02:11:00,
2013-04-17 19:32:00,70.0,27.0,29.93,WNW,284,0.0,1.0,20,0.00,,,0.00,,2013-04-18 02:32:00,
2013-04-17 19:41:00,70.0,27.0,29.93,WNW,284,0.0,1.0,20,0.00,,,0.00,,2013-04-18 02:41:00,
2013-04-17 19:51:00,70.0,27.0,29.93,WNW,284,0.0,1.0,20,0.00,,,0.00,,2013-04-18 02:51:00,
2013-04-17 20:02:00,68.0,29.0,29.94,WNW,299,0.0,1.0,23,0.00,,,0.00,,2013-04-18 03:02:00,
2013-04-17 20:11:00,67.0,28.0,29.95,WNW,299,0.0,1.0,23,0.00,,,0.00,,2013-04-18 03:11:00,
2013-04-17 20:33:00,66.0,25.0,29.96,WNW,298,0.0,1.0,21,0.00,,,0.00,,2013-04-18 03:33:00,
2013-04-17 20:42:00,66.0,24.0,29.96,WNW,295,0.0,1.0,20,0.00,,,0.00,,2013-04-18 03:42:00,
2013-04-17 20:53:00,66.0,24.0,29.96,WNW,295,0.0,1.0,20,0.00,,,0.00,,2013-04-18 03:53:00,
2013-04-17 21:03:00,66.0,25.0,29.97,WNW,295,0.0,1.0,21,0.00,,,0.00,,2013-04-18 04:03:00,
2013-04-17 21:12:00,66.0,25.0,29.97,WNW,295,0.0,1.0,21,0.00,,,0.00,,2013-04-18 04:12:00,
2013-04-17 21:23:00,65.0,25.0,29.98,WNW,295,0.0,1.0,22,0.00,,,0.00,,2013-04-18 04:23:00,
2013-04-17 21:32:00,64.0,24.0,29.98,West,269,0.0,1.0,22,0.00,,,0.00,,2013-04-18 04:32:00,
2013-04-17 21:42:00,64.0,25.0,29.99,West,269,0.0,1.0,23,0.00,,,0.00,,2013-04-18 04:42:00,
2013-04-17 21:52:00,64.0,25.0,29.99,West,269,0.0,1.0,23,0.00,,,0.00,,2013-04-18 04:52:00,
2013-04-17 22:02:00,63.0,27.0,29.99,West,268,0.0,0.0,25,0.00,,,0.00,,2013-04-18 05:02:00,
2013-04-17 22:12:00,62.0,25.0,30.00,NNE,30,0.0,2.0,24,0.00,,,0.00,,2013-04-18 05:12:00,
2013-04-17 22:21:00,62.0,25.0,30.00,NNE,30,0.0,2.0,24,0.00,,,0.00,,2013-04-18 05:21:00,
2013-04-17 22:32:00,62.0,25.0,30.00,NNE,30,0.0,0.0,24,0.00,,,0.00,,2013-04-18 05:32:00,
2013-04-17 22:42:00,61.0,24.0,30.00,NNE,30,0.0,0.0,24,0.00,,,0.00,,2013-04-18 05:42:00,
2013-04-17 23:02:00,61.0,23.0,30.01,NNE,30,0.0,0.0,23,0.00,,,0.00,,2013-04-18 06:02:00,
2013-04-17 23:12:00,61.0,23.0,30.01,NNE,30,0.0,0.0,23,0.00,,,0.00,,2013-04-18 06:12:00,
2013-04-17 23:21:00,61.0,23.0,30.01,NNE,30,0.0,0.0,23,0.00,,,0.00,,2013-04-18 06:21:00,
2013-04-17 23:32:00,60.0,22.0,30.01,NNE,29,0.0,0.0,23,0.00,,,0.00,,2013-04-18 06:32:00,
2013-04-17 23:42:00,60.0,22.0,30.02,NNE,30,0.0,0.0,23,0.00,,,0.00,,2013-04-18 06:42:00,
2013-04-17 23:51:00,60.0,22.0,30.02,NNE,30,0.0,0.0,23,0.00,,,0.00,,2013-04-18 06:51:00,